createdAt,value
2023-04-22T00:00:14.522Z,13.018404
2023-04-22T00:05:20.037Z,12.682558
2023-04-22T00:10:22.227Z,12.207678
2023-04-22T00:15:23.586Z,12.130888
2023-04-22T00:20:25.050Z,11.781798
2023-04-22T00:25:26.350Z,11.855332
2023-04-22T00:30:27.695Z,11.708536
2023-04-22T00:35:29.849Z,12.387746
2023-04-22T00:40:31.370Z,11.789846
2023-04-22T00:45:32.940Z,11.94713
2023-04-22T00:50:34.503Z,11.131112
2023-04-22T00:55:36.092Z,11.725852
2023-04-22T01:00:37.781Z,11.84954
2023-04-22T01:05:39.228Z,11.258056
2023-04-22T01:10:40.765Z,11.254514
2023-04-22T01:15:42.329Z,11.43811
2023-04-22T01:20:43.876Z,11.19185
2023-04-22T01:25:45.284Z,11.17596
2023-04-22T01:30:46.672Z,11.09415
2023-04-22T01:35:48.136Z,11.289212
2023-04-22T01:40:49.822Z,11.438558
2023-04-22T01:45:51.402Z,11.127966
2023-04-22T01:50:52.921Z,11.111966
2023-04-22T01:55:54.186Z,10.871732
2023-04-22T02:00:55.543Z,10.917176
2023-04-22T02:05:57.001Z,11.342946
2023-04-22T02:10:58.579Z,10.841444
2023-04-22T02:16:00.060Z,11.231134
2023-04-22T02:21:01.521Z,11.071366
2023-04-22T02:26:03.094Z,10.233298
2023-04-22T02:31:04.691Z,10.804482
2023-04-22T02:36:06.437Z,11.335728
2023-04-22T02:41:07.745Z,10.722724
2023-04-22T02:46:09.347Z,10.381138
2023-04-22T02:51:10.766Z,11.237256
2023-04-22T02:56:12.062Z,10.614264
2023-04-22T03:01:13.573Z,10.98189
2023-04-22T03:06:14.989Z,10.991606
2023-04-22T03:11:16.239Z,10.307552
2023-04-22T03:16:17.677Z,10.924084
2023-04-22T03:21:19.183Z,10.765646
2023-04-22T03:26:20.588Z,10.21604
2023-04-22T03:31:21.857Z,9.931988
2023-04-22T03:36:23.403Z,10.080276
2023-04-22T03:41:24.916Z,10.340934
2023-04-22T03:46:26.618Z,9.791042
2023-04-22T03:51:28.069Z,9.85106
2023-04-22T03:56:29.330Z,10.080114
2023-04-22T04:01:30.717Z,10.048782
2023-04-22T04:06:32.328Z,10.212336
2023-04-22T04:11:33.890Z,10.168098
2023-04-22T04:16:35.524Z,9.532162
2023-04-22T04:21:37.002Z,9.404174
2023-04-22T04:26:38.530Z,9.967296
2023-04-22T04:31:40.145Z,10.310646
2023-04-22T04:36:41.714Z,11.01367
2023-04-22T04:41:43.290Z,10.978362
2023-04-22T04:46:44.629Z,10.62326
2023-04-22T04:51:46.194Z,10.698286
2023-04-22T04:56:47.736Z,11.338212
2023-04-22T05:01:49.413Z,11.346312
2023-04-22T05:06:50.728Z,11.159188
2023-04-22T05:11:52.307Z,11.276416
2023-04-22T05:16:53.905Z,11.331752
2023-04-22T05:21:55.766Z,11.90592
2023-04-22T05:26:57.230Z,12.741356
2023-04-22T05:31:58.547Z,13.121778
2023-04-22T05:37:00.019Z,13.198296
2023-04-22T05:42:01.537Z,12.618564
2023-04-22T05:47:03.105Z,12.70815
2023-04-22T05:52:04.697Z,13.349678
2023-04-22T05:57:06.006Z,12.953528
2023-04-22T06:02:07.769Z,13.625248
2023-04-22T06:07:09.542Z,13.182148
2023-04-22T06:12:11.125Z,12.971792
2023-04-22T06:17:12.493Z,13.13095
2023-04-22T06:22:13.851Z,13.572286
2023-04-22T06:27:15.145Z,14.076286
2023-04-22T06:32:16.590Z,13.547738
2023-04-22T06:37:17.985Z,14.685328
2023-04-22T06:42:19.477Z,14.80379
2023-04-22T06:47:21.101Z,15.809782
2023-04-22T06:52:23.976Z,16.056232
2023-04-22T06:57:25.810Z,16.281758
2023-04-22T07:02:27.444Z,16.484596
2023-04-22T07:07:29.089Z,17.257232
2023-04-22T07:12:30.729Z,17.547648
2023-04-22T07:17:32.451Z,18.035868
2023-04-22T07:22:34.239Z,18.35444
2023-04-22T07:27:37.050Z,18.14532
2023-04-22T07:32:38.985Z,19.160988
2023-04-22T07:37:40.701Z,19.495722
2023-04-22T07:42:42.246Z,19.398184
2023-04-22T07:47:43.854Z,20.428956
2023-04-22T07:52:45.475Z,20.2067
2023-04-22T07:57:47.059Z,20.27543
2023-04-22T08:02:48.807Z,20.442824
2023-04-22T08:07:50.465Z,21.318252
2023-04-22T08:12:52.023Z,21.540074
2023-04-22T08:17:53.616Z,21.39682
2023-04-22T08:22:55.189Z,21.50212
2023-04-22T08:27:56.767Z,21.782128
2023-04-22T08:32:58.363Z,22.007668
2023-04-22T08:37:59.982Z,23.04775
2023-04-22T08:43:02.319Z,23.06805
2023-04-22T08:48:04.544Z,22.541876
2023-04-22T08:53:06.055Z,22.760794
2023-04-22T08:58:07.558Z,22.872078
2023-04-22T09:03:09.139Z,23.20129
2023-04-22T09:08:10.826Z,23.181438
2023-04-22T09:13:12.311Z,23.242786
2023-04-22T09:18:13.663Z,23.992194
2023-04-22T09:23:15.013Z,23.55509
2023-04-22T09:28:16.326Z,23.966018
2023-04-22T09:33:17.778Z,23.822764
2023-04-22T09:38:19.103Z,22.68072
2023-04-22T09:43:20.626Z,23.116168
2023-04-22T09:48:21.919Z,23.545876
2023-04-22T09:53:23.209Z,23.73144
2023-04-22T09:58:24.692Z,24.36875
2023-04-22T10:03:26.008Z,24.852018
2023-04-22T10:08:27.347Z,24.545304
2023-04-22T10:13:28.881Z,25.076486
2023-04-22T10:18:30.440Z,24.665558
2023-04-22T10:23:32.041Z,24.186022
2023-04-22T10:28:33.588Z,24.186904
2023-04-22T10:33:35.164Z,25.16899
2023-04-22T10:38:36.788Z,25.98238
2023-04-22T10:43:38.331Z,25.109542
2023-04-22T10:48:39.903Z,25.08399
2023-04-22T10:53:41.299Z,24.40779
2023-04-22T10:58:42.876Z,25.411302
2023-04-22T11:03:44.506Z,25.010484
2023-04-22T11:08:46.253Z,25.025288
2023-04-22T11:13:47.834Z,25.655148
2023-04-22T11:18:49.086Z,25.868978
2023-04-22T11:23:50.702Z,25.26893
2023-04-22T11:28:52.316Z,24.634226
2023-04-22T11:33:53.704Z,26.095618
2023-04-22T11:38:55.270Z,26.08217
2023-04-22T11:43:56.912Z,24.705534
2023-04-22T11:48:58.460Z,25.961034
2023-04-22T11:54:00.046Z,24.557422
2023-04-22T11:59:01.670Z,23.67092
2023-04-22T12:04:03.458Z,24.103478
2023-04-22T12:09:05.177Z,24.276504
2023-04-22T12:14:06.750Z,24.77174
2023-04-22T12:19:08.345Z,24.003972
2023-04-22T12:24:09.920Z,24.545942
2023-04-22T12:29:11.484Z,24.90057
2023-04-22T12:34:13.057Z,24.737748
2023-04-22T12:39:14.501Z,25.922388
2023-04-22T12:44:15.887Z,24.683212
2023-04-22T12:49:17.195Z,24.91783
2023-04-22T12:54:18.571Z,25.24707
2023-04-22T12:59:19.830Z,24.337418
2023-04-22T13:04:21.357Z,24.55962
2023-04-22T13:09:22.849Z,24.834418
2023-04-22T13:14:24.258Z,24.376444
2023-04-22T13:19:25.579Z,24.146494
2023-04-22T13:24:27.098Z,24.654716
2023-04-22T13:29:28.603Z,24.690676
2023-04-22T13:34:29.871Z,24.991948
2023-04-22T13:39:32.026Z,24.423436
2023-04-22T13:44:33.681Z,24.893948
2023-04-22T13:49:35.141Z,24.088674
2023-04-22T13:54:36.854Z,25.038966
2023-04-22T13:59:38.499Z,24.196606
2023-04-22T14:04:40.377Z,24.221968
2023-04-22T14:09:42.286Z,24.520146
2023-04-22T14:14:44.086Z,24.096422
2023-04-22T14:19:45.680Z,23.617076
2023-04-22T14:24:47.130Z,24.158462
2023-04-22T14:29:48.530Z,24.210936
2023-04-22T14:34:50.082Z,23.726338
2023-04-22T14:39:51.527Z,23.792544
2023-04-22T14:44:53.098Z,23.283386
2023-04-22T14:49:54.704Z,23.188942
2023-04-22T14:54:56.274Z,23.372986
2023-04-22T14:59:57.917Z,23.026514
2023-04-22T15:04:59.491Z,22.66924
2023-04-22T15:10:01.198Z,22.840298
2023-04-22T15:15:02.790Z,22.464882
2023-04-22T15:20:05.271Z,22.628382
2023-04-22T15:25:07.868Z,22.612058
2023-04-22T15:30:09.421Z,21.988386
2023-04-22T15:35:11.822Z,21.546628
2023-04-22T15:40:13.504Z,21.425886
2023-04-22T15:45:14.811Z,21.195868
2023-04-22T15:50:16.116Z,21.046738
2023-04-22T15:55:17.904Z,20.902168
2023-04-22T16:00:19.185Z,20.426866
2023-04-22T16:05:20.490Z,20.291998
2023-04-22T16:10:22.351Z,20.032032
2023-04-22T16:15:23.644Z,19.746718
2023-04-22T16:20:25.220Z,19.539728
2023-04-22T16:25:26.824Z,19.5278
2023-04-22T16:30:28.544Z,19.593572
2023-04-22T16:35:30.156Z,19.545454
2023-04-22T16:40:31.985Z,19.702848
2023-04-22T16:45:33.527Z,19.221318
2023-04-22T16:50:34.968Z,19.377816
2023-04-22T16:55:37.088Z,18.800064
2023-04-22T17:00:38.788Z,18.933982
2023-04-22T17:05:40.366Z,18.996212
2023-04-22T17:10:41.938Z,18.598556
2023-04-22T17:15:43.524Z,18.729014
2023-04-22T17:20:44.923Z,18.85038
2023-04-22T17:25:46.384Z,18.586004
2023-04-22T17:30:47.644Z,18.268408
2023-04-22T17:35:49.360Z,17.310668
2023-04-22T17:40:50.850Z,17.518798
2023-04-22T17:45:52.107Z,17.346668
2023-04-22T17:50:53.690Z,16.806016
2023-04-22T17:55:55.246Z,16.804062
2023-04-22T18:00:56.849Z,16.925184
2023-04-22T18:05:58.401Z,16.607846
2023-04-22T18:10:59.983Z,17.228912
2023-04-22T18:16:01.591Z,16.457604
2023-04-22T18:21:03.108Z,15.917386
2023-04-22T18:26:04.659Z,15.983416
2023-04-22T18:31:06.449Z,16.364734
2023-04-22T18:36:08.046Z,16.569526
2023-04-22T18:41:09.539Z,16.34841
2023-04-22T18:46:11.120Z,16.376214
2023-04-22T18:51:12.577Z,16.564492
2023-04-22T18:56:14.272Z,15.687274
2023-04-22T19:01:15.693Z,16.483984
2023-04-22T19:06:16.981Z,16.057302
2023-04-22T19:11:18.383Z,16.155098
2023-04-22T19:16:19.808Z,16.230478
2023-04-22T19:21:21.410Z,15.843148
2023-04-22T19:26:23.100Z,16.033108
2023-04-22T19:31:24.618Z,16.11785
2023-04-22T19:36:25.997Z,15.583996
2023-04-22T19:41:27.596Z,15.040522
2023-04-22T19:46:29.299Z,15.293852
2023-04-22T19:51:30.837Z,15.214674
2023-04-22T19:56:32.529Z,14.675786
2023-04-22T20:01:33.837Z,15.387672
2023-04-22T20:06:35.341Z,14.391558
2023-04-22T20:11:36.722Z,14.948982
2023-04-22T20:16:38.094Z,14.861594
2023-04-22T20:21:39.587Z,14.752672
2023-04-22T20:26:40.872Z,14.904054
2023-04-22T20:31:42.322Z,14.528028
2023-04-22T20:36:43.849Z,14.626448
2023-04-22T20:41:47.797Z,14.097276
2023-04-22T20:46:49.345Z,14.167892
2023-04-22T20:51:51.495Z,13.894806
2023-04-22T20:56:52.767Z,14.236392
2023-04-22T21:01:54.341Z,12.509994
2023-04-22T21:06:55.651Z,12.827752
2023-04-22T21:11:57.224Z,13.135264
2023-04-22T21:16:58.855Z,13.227944
2023-04-22T21:22:00.172Z,13.938934
2023-04-22T21:27:01.484Z,13.410658
2023-04-22T21:32:09.295Z,13.074254
2023-04-22T21:37:11.360Z,13.406682
2023-04-22T21:42:12.622Z,13.456998
2023-04-22T21:47:14.206Z,12.768954
2023-04-22T21:52:15.666Z,12.491796
2023-04-22T21:57:17.176Z,12.53416
2023-04-22T22:02:18.746Z,12.67892
2023-04-22T22:07:20.118Z,12.913714
2023-04-22T22:12:21.734Z,12.049144
2023-04-22T22:17:23.401Z,12.915574
2023-04-22T22:22:24.982Z,12.711582
2023-04-22T22:27:26.473Z,13.497694
2023-04-22T22:32:28.048Z,12.998104
2023-04-22T22:37:29.295Z,12.449976
2023-04-22T22:42:30.677Z,12.410964
2023-04-22T22:47:32.000Z,12.57928
2023-04-22T22:52:33.613Z,12.161786
2023-04-22T22:57:35.579Z,11.782246
2023-04-22T23:02:37.541Z,11.333406
2023-04-22T23:07:39.331Z,12.371246
2023-04-22T23:12:40.949Z,11.86449
2023-04-22T23:17:42.535Z,12.784058
2023-04-22T23:22:44.129Z,11.791514
2023-04-22T23:27:45.722Z,11.980402
2023-04-22T23:32:47.318Z,12.135746
2023-04-22T23:37:48.831Z,11.567142
2023-04-22T23:42:50.208Z,11.270132
2023-04-22T23:47:51.482Z,12.177676
2023-04-22T23:52:52.978Z,11.758242
2023-04-22T23:57:54.462Z,11.547724
